createdAt,value
2023-05-09T00:01:20.746Z,17.20
2023-05-09T00:03:48.414Z,17.20
2023-05-09T00:06:15.657Z,17.20
2023-05-09T00:08:45.297Z,17.10
2023-05-09T00:11:18.261Z,17.00
2023-05-09T00:13:45.306Z,17.00
2023-05-09T00:16:18.770Z,17.00
2023-05-09T00:18:45.779Z,17.00
2023-05-09T00:21:14.246Z,17.00
2023-05-09T00:23:41.384Z,16.80
2023-05-09T00:26:10.177Z,16.70
2023-05-09T00:28:38.569Z,16.60
2023-05-09T00:31:10.878Z,16.60
2023-05-09T00:33:38.163Z,16.60
2023-05-09T00:36:05.634Z,16.60
2023-05-09T00:38:34.754Z,16.60
2023-05-09T00:41:01.837Z,16.50
2023-05-09T00:43:29.812Z,16.50
2023-05-09T00:45:57.339Z,16.50
2023-05-09T00:48:24.339Z,16.60
2023-05-09T00:50:53.301Z,16.50
2023-05-09T00:53:20.968Z,16.50
2023-05-09T00:55:48.249Z,16.50
2023-05-09T00:58:15.803Z,16.40
2023-05-09T01:00:45.397Z,16.40
2023-05-09T01:03:12.546Z,16.40
2023-05-09T01:05:58.217Z,16.40
2023-05-09T01:08:50.075Z,16.30
2023-05-09T01:11:29.573Z,16.30
2023-05-09T01:14:06.686Z,16.20
2023-05-09T01:16:40.088Z,16.20
2023-05-09T01:19:19.694Z,16.20
2023-05-09T01:21:49.492Z,16.10
2023-05-09T01:24:25.145Z,16.10
2023-05-09T01:26:52.633Z,16.00
2023-05-09T01:29:26.103Z,16.00
2023-05-09T01:31:54.585Z,15.90
2023-05-09T01:34:25.142Z,15.90
2023-05-09T01:36:56.711Z,15.80
2023-05-09T01:39:24.851Z,15.80
2023-05-09T01:41:53.947Z,15.80
2023-05-09T01:44:23.431Z,15.80
2023-05-09T01:46:51.993Z,15.70
2023-05-09T01:49:20.240Z,15.70
2023-05-09T01:51:48.332Z,15.60
2023-05-09T01:54:16.963Z,15.60
2023-05-09T01:56:44.223Z,15.60
2023-05-09T01:59:17.189Z,15.60
2023-05-09T02:01:45.980Z,15.50
2023-05-09T02:04:14.012Z,15.50
2023-05-09T02:06:41.989Z,15.50
2023-05-09T02:09:09.167Z,15.50
2023-05-09T02:11:37.237Z,15.40
2023-05-09T02:14:04.284Z,15.40
2023-05-09T02:16:32.814Z,15.50
2023-05-09T02:19:00.210Z,15.50
2023-05-09T02:21:29.200Z,15.40
2023-05-09T02:23:56.784Z,15.40
2023-05-09T02:26:26.221Z,15.40
2023-05-09T02:28:55.496Z,15.30
2023-05-09T02:31:27.087Z,15.30
2023-05-09T02:33:55.435Z,15.30
2023-05-09T02:36:25.059Z,15.30
2023-05-09T02:38:52.506Z,15.30
2023-05-09T02:41:21.095Z,15.30
2023-05-09T02:43:50.467Z,15.30
2023-05-09T02:46:17.551Z,15.30
2023-05-09T02:48:44.772Z,15.30
2023-05-09T02:51:11.600Z,15.20
2023-05-09T02:53:39.837Z,15.20
2023-05-09T02:56:08.482Z,15.20
2023-05-09T02:58:38.289Z,15.10
2023-05-09T03:01:05.967Z,15.10
2023-05-09T03:03:36.594Z,15.00
2023-05-09T03:06:05.384Z,15.00
2023-05-09T03:08:35.190Z,14.90
2023-05-09T03:11:02.591Z,14.90
2023-05-09T03:13:30.457Z,15.00
2023-05-09T03:16:00.173Z,15.00
2023-05-09T03:18:28.286Z,14.90
2023-05-09T03:21:01.320Z,15.00
2023-05-09T03:23:29.486Z,15.00
2023-05-09T03:25:58.085Z,15.00
2023-05-09T03:28:26.751Z,15.00
2023-05-09T03:30:57.336Z,14.90
2023-05-09T03:33:27.138Z,14.90
2023-05-09T03:35:55.517Z,14.90
2023-05-09T03:38:25.245Z,15.00
2023-05-09T03:40:59.350Z,14.90
2023-05-09T03:43:31.283Z,15.00
2023-05-09T03:46:01.396Z,15.00
2023-05-09T03:48:32.470Z,15.00
2023-05-09T03:50:59.857Z,15.00
2023-05-09T03:53:38.618Z,15.00
2023-05-09T03:56:07.709Z,15.00
2023-05-09T03:58:41.089Z,15.00
2023-05-09T04:01:08.644Z,15.10
2023-05-09T04:03:37.833Z,15.10
2023-05-09T04:06:07.310Z,15.10
2023-05-09T04:08:38.445Z,15.10
2023-05-09T04:11:06.548Z,15.10
2023-05-09T04:13:34.656Z,15.10
2023-05-09T04:16:07.893Z,15.20
2023-05-09T04:18:36.606Z,15.30
2023-05-09T04:21:03.676Z,15.50
2023-05-09T04:23:31.418Z,15.60
2023-05-09T04:26:00.136Z,15.70
2023-05-09T04:28:28.388Z,15.70
2023-05-09T04:30:56.834Z,15.80
2023-05-09T04:33:24.483Z,15.80
2023-05-09T04:35:52.578Z,15.80
2023-05-09T04:38:20.096Z,15.80
2023-05-09T04:40:47.451Z,15.80
2023-05-09T04:43:14.518Z,15.80
2023-05-09T04:45:41.793Z,15.80
2023-05-09T04:48:08.775Z,15.80
2023-05-09T04:50:36.282Z,15.80
2023-05-09T04:53:03.573Z,15.90
2023-05-09T04:55:30.556Z,15.90
2023-05-09T04:57:58.882Z,16.00
2023-05-09T05:00:26.092Z,16.00
2023-05-09T05:02:53.255Z,16.10
2023-05-09T05:05:25.035Z,16.10
2023-05-09T05:07:54.254Z,16.20
2023-05-09T05:10:24.617Z,16.20
2023-05-09T05:12:59.454Z,16.30
2023-05-09T05:15:29.520Z,16.30
2023-05-09T05:17:57.586Z,16.20
2023-05-09T05:20:29.280Z,16.20
2023-05-09T05:22:58.671Z,16.20
2023-05-09T05:25:26.326Z,16.20
2023-05-09T05:27:54.871Z,16.30
2023-05-09T05:30:21.970Z,16.40
2023-05-09T05:32:49.694Z,16.50
2023-05-09T05:35:22.115Z,16.60
2023-05-09T05:37:50.321Z,16.80
2023-05-09T05:40:18.213Z,16.90
2023-05-09T05:42:50.360Z,17.10
2023-05-09T05:45:18.304Z,17.20
2023-05-09T05:47:50.272Z,17.30
2023-05-09T05:50:18.039Z,17.50
2023-05-09T05:52:44.979Z,17.70
2023-05-09T05:55:15.178Z,17.80
2023-05-09T05:57:42.467Z,18.00
2023-05-09T06:00:15.557Z,18.10
2023-05-09T06:02:50.281Z,18.20
2023-05-09T06:05:25.654Z,18.30
2023-05-09T06:07:55.877Z,18.10
2023-05-09T06:10:22.765Z,18.10
2023-05-09T06:12:52.936Z,18.00
2023-05-09T06:15:20.061Z,17.90
2023-05-09T06:17:52.774Z,17.90
2023-05-09T06:20:19.946Z,17.90
2023-05-09T06:22:46.899Z,17.90
2023-05-09T06:25:14.280Z,17.80
2023-05-09T06:27:44.855Z,17.80
2023-05-09T06:30:24.777Z,17.80
2023-05-09T06:32:53.217Z,17.80
2023-05-09T06:35:20.306Z,17.80
2023-05-09T06:37:48.679Z,17.90
2023-05-09T06:40:19.186Z,18.00
2023-05-09T06:42:46.244Z,18.00
2023-05-09T06:45:13.459Z,18.10
2023-05-09T06:47:40.868Z,18.20
2023-05-09T06:50:08.174Z,18.30
2023-05-09T06:52:36.399Z,18.40
2023-05-09T06:55:04.186Z,18.40
2023-05-09T06:57:31.323Z,18.40
2023-05-09T06:59:58.171Z,18.50
2023-05-09T07:02:25.051Z,18.40
2023-05-09T07:04:52.064Z,18.50
2023-05-09T07:07:19.299Z,18.40
2023-05-09T07:09:46.163Z,18.40
2023-05-09T07:12:15.215Z,18.50
2023-05-09T07:14:42.054Z,18.50
2023-05-09T07:17:21.877Z,18.50
2023-05-09T07:19:51.374Z,18.50
2023-05-09T07:22:18.447Z,18.60
2023-05-09T07:24:46.542Z,18.60
2023-05-09T07:27:13.536Z,18.60
2023-05-09T07:29:40.768Z,18.70
2023-05-09T07:32:07.894Z,18.70
2023-05-09T07:34:35.980Z,18.70
2023-05-09T07:37:06.011Z,18.70
2023-05-09T07:39:36.179Z,18.80
2023-05-09T07:42:03.950Z,18.90
2023-05-09T07:44:31.479Z,19.10
2023-05-09T07:47:00.108Z,19.20
2023-05-09T07:49:30.063Z,19.30
2023-05-09T07:51:57.947Z,19.30
2023-05-09T07:54:25.527Z,19.30
2023-05-09T07:56:52.700Z,19.30
2023-05-09T07:59:19.698Z,19.30
2023-05-09T08:01:46.926Z,19.30
2023-05-09T08:04:14.759Z,19.40
2023-05-09T08:06:41.885Z,19.50
2023-05-09T08:09:08.925Z,19.60
2023-05-09T08:11:36.168Z,19.80
2023-05-09T08:14:03.607Z,19.80
2023-05-09T08:16:30.836Z,19.90
2023-05-09T08:19:00.646Z,20.00
2023-05-09T08:21:27.988Z,20.00
2023-05-09T08:23:56.786Z,20.00
2023-05-09T08:26:24.068Z,20.10
2023-05-09T08:28:54.461Z,20.10
2023-05-09T08:31:24.165Z,20.10
2023-05-09T08:33:50.933Z,20.20
2023-05-09T08:36:20.995Z,20.20
2023-05-09T08:38:49.703Z,20.20
2023-05-09T08:41:16.643Z,20.30
2023-05-09T08:43:45.924Z,20.40
2023-05-09T08:46:13.355Z,20.50
2023-05-09T08:48:41.542Z,20.60
2023-05-09T08:51:09.295Z,20.70
2023-05-09T08:53:39.427Z,20.90
2023-05-09T08:56:09.353Z,21.00
2023-05-09T08:58:37.029Z,21.00
2023-05-09T09:01:07.243Z,21.00
2023-05-09T09:03:34.398Z,21.10
2023-05-09T09:06:01.691Z,21.10
2023-05-09T09:08:29.430Z,21.20
2023-05-09T09:10:56.418Z,21.30
2023-05-09T09:13:24.497Z,21.30
2023-05-09T09:15:53.392Z,21.20
2023-05-09T09:18:25.471Z,21.20
2023-05-09T09:21:00.996Z,21.10
2023-05-09T09:23:28.892Z,21.00
2023-05-09T09:26:00.091Z,20.90
2023-05-09T09:28:28.749Z,20.90
2023-05-09T09:30:55.691Z,21.00
2023-05-09T09:33:24.170Z,21.10
2023-05-09T09:35:52.427Z,21.20
2023-05-09T09:38:23.692Z,21.40
2023-05-09T09:40:54.003Z,21.50
2023-05-09T09:43:27.261Z,21.60
2023-05-09T09:45:55.178Z,21.60
2023-05-09T09:48:25.947Z,21.60
2023-05-09T09:50:56.901Z,21.60
2023-05-09T09:53:26.531Z,21.60
2023-05-09T09:55:56.482Z,21.60
2023-05-09T09:58:25.159Z,21.60
2023-05-09T10:01:08.590Z,21.50
2023-05-09T10:03:40.250Z,21.50
2023-05-09T10:06:14.263Z,21.40
2023-05-09T10:08:41.684Z,21.40
2023-05-09T10:11:19.810Z,21.30
2023-05-09T10:13:47.549Z,21.30
2023-05-09T10:16:14.633Z,21.40
2023-05-09T10:18:44.481Z,21.50
2023-05-09T10:21:12.365Z,21.70
2023-05-09T10:23:39.983Z,21.90
2023-05-09T10:26:18.680Z,22.10
2023-05-09T10:28:46.554Z,22.20
2023-05-09T10:31:29.933Z,22.30
2023-05-09T10:33:57.166Z,22.30
2023-05-09T10:36:24.213Z,22.30
2023-05-09T10:38:53.749Z,22.30
2023-05-09T10:41:22.242Z,22.30
2023-05-09T10:43:49.816Z,22.30
2023-05-09T10:46:17.869Z,22.30
2023-05-09T10:48:45.009Z,22.30
2023-05-09T10:51:13.769Z,22.30
2023-05-09T10:53:42.550Z,22.40
2023-05-09T10:56:22.497Z,22.50
2023-05-09T10:58:49.915Z,22.50
2023-05-09T11:01:28.207Z,22.60
2023-05-09T11:03:59.047Z,22.70
2023-05-09T11:06:46.335Z,22.80
2023-05-09T11:09:29.470Z,22.90
2023-05-09T11:11:58.563Z,23.00
2023-05-09T11:14:29.312Z,23.10
2023-05-09T11:17:00.265Z,23.10
2023-05-09T11:19:39.194Z,23.20
2023-05-09T11:22:15.266Z,23.30
2023-05-09T11:24:49.363Z,23.20
2023-05-09T11:27:25.459Z,23.20
2023-05-09T11:29:52.509Z,23.20
2023-05-09T11:32:21.924Z,23.20
2023-05-09T11:34:51.659Z,23.20
2023-05-09T11:37:23.801Z,23.20
2023-05-09T11:40:00.961Z,23.10
2023-05-09T11:42:28.314Z,23.10
2023-05-09T11:44:59.591Z,23.00
2023-05-09T11:47:28.880Z,23.00
2023-05-09T11:49:55.920Z,23.00
2023-05-09T11:52:22.963Z,23.10
2023-05-09T11:54:50.296Z,23.20
2023-05-09T11:57:18.869Z,23.20
2023-05-09T11:59:46.252Z,23.20
2023-05-09T12:02:13.471Z,23.20
2023-05-09T12:04:40.504Z,23.20
2023-05-09T12:07:07.638Z,23.20
2023-05-09T12:09:43.634Z,23.20
2023-05-09T12:12:20.388Z,23.10
2023-05-09T12:14:48.477Z,23.20
2023-05-09T12:17:15.549Z,23.30
2023-05-09T12:19:42.641Z,23.40
2023-05-09T12:22:10.002Z,23.40
2023-05-09T12:24:37.871Z,23.40
2023-05-09T12:27:05.422Z,23.30
2023-05-09T12:29:32.711Z,23.30
2023-05-09T12:32:01.143Z,23.30
2023-05-09T12:34:28.020Z,23.40
2023-05-09T12:36:55.205Z,23.40
2023-05-09T12:39:23.228Z,23.40
2023-05-09T12:42:01.213Z,23.30
2023-05-09T12:44:30.011Z,23.20
2023-05-09T12:47:03.067Z,23.10
2023-05-09T12:49:30.856Z,22.90
2023-05-09T12:51:59.268Z,22.90
2023-05-09T12:54:27.249Z,22.90
2023-05-09T12:56:56.944Z,22.90
2023-05-09T12:59:24.705Z,22.90
2023-05-09T13:01:56.695Z,22.90
2023-05-09T13:04:25.177Z,22.90
2023-05-09T13:06:56.423Z,22.80
2023-05-09T13:09:27.697Z,22.70
2023-05-09T13:11:54.933Z,22.60
2023-05-09T13:14:23.389Z,22.40
2023-05-09T13:16:50.448Z,22.30
2023-05-09T13:19:17.210Z,22.10
2023-05-09T13:21:44.572Z,22.00
2023-05-09T13:24:11.860Z,22.00
2023-05-09T13:26:41.874Z,22.10
2023-05-09T13:29:08.671Z,22.20
2023-05-09T13:31:38.923Z,22.30
2023-05-09T13:34:06.156Z,22.40
2023-05-09T13:36:32.941Z,22.50
2023-05-09T13:38:59.989Z,22.70
2023-05-09T13:41:27.294Z,22.80
2023-05-09T13:43:54.146Z,22.90
2023-05-09T13:46:21.177Z,22.90
2023-05-09T13:48:49.306Z,23.00
2023-05-09T13:51:16.221Z,23.10
2023-05-09T13:53:43.228Z,23.20
2023-05-09T13:56:10.339Z,23.20
2023-05-09T13:58:40.681Z,23.20
2023-05-09T14:01:10.276Z,23.20
2023-05-09T14:03:37.215Z,23.10
2023-05-09T14:06:04.514Z,23.00
2023-05-09T14:08:31.258Z,22.90
2023-05-09T14:10:58.250Z,22.80
2023-05-09T14:13:25.374Z,22.80
2023-05-09T14:15:52.901Z,22.70
2023-05-09T14:18:21.184Z,22.70
2023-05-09T14:20:48.439Z,22.80
2023-05-09T14:23:15.606Z,22.80
2023-05-09T14:25:43.655Z,22.90
2023-05-09T14:28:13.972Z,22.90
2023-05-09T14:30:43.155Z,22.90
2023-05-09T14:33:10.163Z,22.80
2023-05-09T14:35:41.039Z,22.70
2023-05-09T14:38:13.242Z,22.60
2023-05-09T14:40:40.710Z,22.50
2023-05-09T14:43:10.021Z,22.40
2023-05-09T14:45:39.393Z,22.20
2023-05-09T14:48:06.812Z,22.10
2023-05-09T14:50:40.029Z,21.90
2023-05-09T14:53:07.112Z,21.70
2023-05-09T14:55:33.963Z,21.70
2023-05-09T14:58:02.882Z,21.60
2023-05-09T15:00:30.347Z,21.50
2023-05-09T15:02:57.756Z,21.50
2023-05-09T15:05:25.233Z,21.40
2023-05-09T15:07:52.565Z,21.20
2023-05-09T15:10:19.462Z,21.00
2023-05-09T15:12:46.328Z,20.70
2023-05-09T15:15:14.575Z,20.40
2023-05-09T15:17:41.585Z,20.30
2023-05-09T15:20:09.373Z,20.00
2023-05-09T15:22:36.396Z,20.00
2023-05-09T15:25:06.711Z,19.90
2023-05-09T15:27:33.537Z,19.90
2023-05-09T15:30:00.495Z,19.90
2023-05-09T15:32:28.373Z,19.80
2023-05-09T15:34:55.237Z,19.70
2023-05-09T15:37:22.402Z,19.50
2023-05-09T15:39:50.843Z,19.50
2023-05-09T15:42:21.412Z,19.50
2023-05-09T15:44:48.634Z,19.50
2023-05-09T15:47:17.042Z,19.40
2023-05-09T15:49:44.626Z,19.40
2023-05-09T15:52:12.790Z,19.30
2023-05-09T15:54:45.254Z,19.40
2023-05-09T15:57:13.444Z,19.40
2023-05-09T15:59:40.448Z,19.40
2023-05-09T16:02:07.757Z,19.40
2023-05-09T16:04:35.209Z,19.40
2023-05-09T16:07:02.585Z,19.40
2023-05-09T16:09:29.864Z,19.30
2023-05-09T16:11:57.454Z,19.20
2023-05-09T16:14:24.850Z,19.20
2023-05-09T16:16:53.834Z,19.20
2023-05-09T16:19:21.812Z,19.10
2023-05-09T16:21:48.991Z,19.00
2023-05-09T16:24:18.513Z,19.00
2023-05-09T16:26:45.868Z,19.00
2023-05-09T16:29:13.845Z,19.00
2023-05-09T16:31:41.082Z,19.10
2023-05-09T16:34:08.127Z,19.20
2023-05-09T16:36:37.243Z,19.20
2023-05-09T16:39:04.261Z,19.20
2023-05-09T16:41:31.281Z,19.20
2023-05-09T16:43:59.438Z,19.30
2023-05-09T16:46:26.485Z,19.30
2023-05-09T16:48:54.683Z,19.30
2023-05-09T16:51:22.642Z,19.40
2023-05-09T16:53:49.815Z,19.50
2023-05-09T16:56:16.709Z,19.50
2023-05-09T16:58:44.823Z,19.50
2023-05-09T17:01:14.558Z,19.50
2023-05-09T17:03:41.455Z,19.50
2023-05-09T17:06:11.408Z,19.50
2023-05-09T17:08:38.797Z,19.50
2023-05-09T17:11:06.002Z,19.50
2023-05-09T17:13:32.889Z,19.50
2023-05-09T17:16:00.380Z,19.50
2023-05-09T17:18:37.560Z,19.40
2023-05-09T17:21:05.704Z,19.30
2023-05-09T17:23:32.799Z,19.30
2023-05-09T17:26:00.830Z,19.10
2023-05-09T17:28:30.073Z,19.10
2023-05-09T17:30:59.038Z,19.00
2023-05-09T17:33:26.377Z,19.00
2023-05-09T17:36:02.583Z,19.00
2023-05-09T17:38:30.205Z,18.90
2023-05-09T17:40:57.481Z,18.70
2023-05-09T17:43:28.492Z,18.60
2023-05-09T17:45:58.358Z,18.40
2023-05-09T17:48:25.703Z,18.30
2023-05-09T17:50:55.524Z,18.30
2023-05-09T17:53:31.850Z,18.30
2023-05-09T17:55:59.200Z,18.40
2023-05-09T17:58:27.669Z,18.40
2023-05-09T18:00:59.602Z,18.30
2023-05-09T18:03:27.699Z,18.30
2023-05-09T18:05:57.666Z,18.30
2023-05-09T18:08:24.520Z,18.30
2023-05-09T18:10:57.794Z,18.30
2023-05-09T18:13:25.078Z,18.30
2023-05-09T18:15:54.127Z,18.30
2023-05-09T18:18:22.626Z,18.30
2023-05-09T18:20:49.808Z,18.30
2023-05-09T18:23:19.132Z,18.30
2023-05-09T18:25:46.607Z,18.20
2023-05-09T18:28:13.353Z,18.20
2023-05-09T18:30:40.229Z,18.20
2023-05-09T18:33:07.198Z,18.20
2023-05-09T18:35:35.567Z,18.20
2023-05-09T18:38:02.458Z,18.10
2023-05-09T18:40:29.500Z,18.10
2023-05-09T18:42:56.451Z,18.00
2023-05-09T18:45:24.800Z,18.10
2023-05-09T18:47:51.824Z,18.10
2023-05-09T18:50:19.171Z,18.10
2023-05-09T18:52:46.146Z,18.10
2023-05-09T18:55:16.101Z,18.10
2023-05-09T18:57:43.017Z,18.10
2023-05-09T19:00:12.665Z,18.10
2023-05-09T19:02:40.617Z,18.00
2023-05-09T19:05:07.974Z,18.00
2023-05-09T19:07:35.255Z,17.90
2023-05-09T19:10:03.916Z,17.90
2023-05-09T19:12:31.810Z,17.80
2023-05-09T19:14:58.879Z,17.70
2023-05-09T19:17:26.757Z,17.70
2023-05-09T19:19:53.655Z,17.60
2023-05-09T19:22:20.760Z,17.60
2023-05-09T19:24:47.923Z,17.60
2023-05-09T19:27:16.143Z,17.60
2023-05-09T19:29:43.248Z,17.60
2023-05-09T19:32:10.561Z,17.60
2023-05-09T19:34:37.424Z,17.60
2023-05-09T19:37:05.625Z,17.50
2023-05-09T19:39:32.718Z,17.40
2023-05-09T19:42:00.776Z,17.30
2023-05-09T19:44:28.216Z,17.30
2023-05-09T19:46:58.578Z,17.40
2023-05-09T19:49:25.984Z,17.40
2023-05-09T19:51:53.584Z,17.40
2023-05-09T19:54:25.795Z,17.40
2023-05-09T19:57:03.764Z,17.40
2023-05-09T19:59:31.003Z,17.30
2023-05-09T20:01:57.747Z,17.30
2023-05-09T20:04:25.512Z,17.30
2023-05-09T20:06:52.881Z,17.30
2023-05-09T20:09:21.611Z,17.40
2023-05-09T20:11:49.031Z,17.50
2023-05-09T20:14:16.530Z,17.50
2023-05-09T20:16:46.780Z,17.50
2023-05-09T20:22:05.133Z,17.60
2023-05-09T20:24:32.050Z,17.60
2023-05-09T20:27:02.964Z,17.50
2023-05-09T20:29:31.574Z,17.40
2023-05-09T20:32:04.916Z,17.40
2023-05-09T20:34:32.354Z,17.40
2023-05-09T20:37:00.805Z,17.20
2023-05-09T20:39:30.790Z,17.20
2023-05-09T20:42:02.383Z,17.10
2023-05-09T20:44:30.792Z,17.10
2023-05-09T20:46:57.814Z,17.10
2023-05-09T20:49:26.341Z,17.10
2023-05-09T20:51:55.202Z,17.10
2023-05-09T20:54:24.126Z,17.10
2023-05-09T20:56:52.211Z,17.10
2023-05-09T20:59:23.347Z,17.10
2023-05-09T21:01:55.874Z,17.00
2023-05-09T21:04:23.302Z,17.00
2023-05-09T21:06:53.460Z,16.90
2023-05-09T21:09:20.555Z,16.90
2023-05-09T21:11:47.839Z,16.90
2023-05-09T21:14:15.223Z,16.90
2023-05-09T21:16:46.596Z,16.90
2023-05-09T21:19:14.192Z,16.90
2023-05-09T21:21:41.723Z,17.00
2023-05-09T21:24:08.996Z,17.00
2023-05-09T21:26:36.628Z,17.00
2023-05-09T21:29:04.249Z,17.10
2023-05-09T21:31:31.644Z,17.10
2023-05-09T21:33:59.148Z,17.10
2023-05-09T21:36:27.212Z,17.10
2023-05-09T21:38:55.236Z,17.10
2023-05-09T21:41:22.585Z,17.10
2023-05-09T21:43:49.952Z,17.10
2023-05-09T21:46:16.877Z,17.10
2023-05-09T21:48:47.132Z,17.10
2023-05-09T21:51:15.219Z,17.10
2023-05-09T21:53:42.423Z,17.00
2023-05-09T21:56:09.627Z,17.10
2023-05-09T21:58:37.061Z,17.00
2023-05-09T22:01:06.816Z,17.10
2023-05-09T22:03:37.190Z,17.10
2023-05-09T22:06:04.973Z,17.10
2023-05-09T22:08:35.222Z,17.10
2023-05-09T22:11:02.272Z,17.00
2023-05-09T22:13:37.037Z,17.00
2023-05-09T22:16:04.707Z,17.10
2023-05-09T22:18:32.121Z,17.10
2023-05-09T22:21:02.359Z,17.10
2023-05-09T22:23:33.083Z,17.10
2023-05-09T22:25:59.819Z,17.10
2023-05-09T22:28:28.686Z,17.10
2023-05-09T22:30:59.777Z,17.00
2023-05-09T22:33:26.623Z,17.00
2023-05-09T22:35:54.330Z,17.00
2023-05-09T22:38:22.276Z,17.00
2023-05-09T22:40:49.927Z,17.00
2023-05-09T22:43:16.779Z,17.00
2023-05-09T22:45:44.083Z,17.00
2023-05-09T22:48:13.801Z,17.00
2023-05-09T22:50:41.608Z,17.00
2023-05-09T22:53:12.011Z,17.00
2023-05-09T22:55:41.581Z,16.90
2023-05-09T22:58:08.560Z,16.90
2023-05-09T23:00:39.643Z,16.90
2023-05-09T23:03:07.676Z,16.90
2023-05-09T23:05:36.259Z,16.90
2023-05-09T23:08:03.514Z,16.80
2023-05-09T23:10:34.184Z,16.80
2023-05-09T23:13:02.077Z,16.80
2023-05-09T23:15:29.600Z,16.80
2023-05-09T23:18:02.293Z,16.80
2023-05-09T23:20:30.979Z,16.80
2023-05-09T23:22:58.046Z,16.80
2023-05-09T23:25:25.862Z,16.80
2023-05-09T23:27:55.987Z,16.70
2023-05-09T23:30:26.814Z,16.80
2023-05-09T23:32:53.990Z,16.70
2023-05-09T23:35:21.390Z,16.70
2023-05-09T23:37:52.438Z,16.70
2023-05-09T23:40:20.190Z,16.60
2023-05-09T23:42:47.209Z,16.60
2023-05-09T23:45:15.532Z,16.50
2023-05-09T23:47:42.927Z,16.50
2023-05-09T23:50:15.271Z,16.50
2023-05-09T23:52:42.907Z,16.50
2023-05-09T23:55:10.561Z,16.50
2023-05-09T23:57:38.144Z,16.50
